Time;durP1;ratioP1;P1;durP2;ratioP2;P2;SDS_P1;SDS_P2;PMS_P1;PMS_P2;Temp;Humidity;BMP_temperature;BMP_pressure;BME280_temperature;BME280_humidity;BME280_pressure;Samples;Min_cycle;Max_cycle;Signal;HPM_P1;HPM_P2
2021/10/26 00:01:04;;;;;;;16.50;10.87;;;;;;;;;;4993176;28;20935;-51
2021/10/26 00:03:30;;;;;;;13.23;10.17;;;;;;;;;;4992829;28;20935;-50
2021/10/26 00:05:56;;;;;;;13.10;10.00;;;;;;;;;;4993030;28;20409;-51
2021/10/26 00:08:22;;;;;;;13.87;9.80;;;;;;;;;;4993314;28;20871;-52
2021/10/26 00:10:48;;;;;;;11.47;10.00;;;;;;;;;;4993372;28;20400;-50
2021/10/26 00:13:14;;;;;;;17.60;10.90;;;;;;;;;;4992624;28;20792;-51
2021/10/26 00:15:40;;;;;;;12.83;9.63;;;;;;;;;;4992931;28;20447;-52
2021/10/26 00:18:06;;;;;;;15.43;10.83;;;;;;;;;;4992745;28;20499;-50
2021/10/26 00:20:32;;;;;;;13.23;8.73;;;;;;;;;;4992825;28;20411;-50
2021/10/26 00:22:59;;;;;;;14.60;10.07;;;;;;;;;;4992488;28;20448;-52
2021/10/26 00:25:25;;;;;;;11.77;8.60;;;;;;;;;;4992641;28;20404;-50
2021/10/26 00:27:51;;;;;;;14.10;9.40;;;;;;;;;;4992672;28;20471;-51
2021/10/26 00:30:17;;;;;;;13.13;8.63;;;;;;;;;;4992421;28;20958;-52
2021/10/26 00:32:43;;;;;;;11.70;9.73;;;;;;;;;;4991966;28;20799;-52
2021/10/26 00:35:09;;;;;;;12.20;8.50;;;;;;;;;;4992659;28;20410;-52
2021/10/26 00:37:36;;;;;;;12.07;9.77;;;;;;;;;;4992461;28;20967;-52
2021/10/26 00:40:02;;;;;;;13.40;9.47;;;;;;;;;;4992517;28;20772;-51
2021/10/26 00:42:29;;;;;;;17.57;9.47;;;;;;;;;;4992309;28;20427;-51
2021/10/26 00:44:55;;;;;;;14.30;9.60;;;;;;;;;;4992539;28;20400;-51
2021/10/26 00:47:22;;;;;;;11.60;9.10;;;;;;;;;;4992495;28;20880;-51
2021/10/26 00:49:48;;;;;;;11.67;8.57;;;;;;;;;;4992510;28;20450;-51
2021/10/26 00:52:14;;;;;;;12.13;9.20;;;;;;;;;;4992184;28;20428;-51
2021/10/26 00:54:40;;;;;;;11.30;8.50;;;;;;;;;;4992349;28;20401;-51
2021/10/26 00:57:07;;;;;;;10.50;9.40;;;;;;;;;;4992311;28;20461;-51
2021/10/26 00:59:33;;;;;;;12.43;8.60;;;;;;;;;;4992360;28;20773;-51
2021/10/26 01:01:59;;;;;;;18.60;9.07;;;;;;;;;;4991676;28;20773;-52
2021/10/26 01:04:25;;;;;;;13.43;9.60;;;;;;;;;;4991940;28;20408;-51
2021/10/26 01:06:53;;;;;;;15.77;9.57;;;;;;;;;;4992166;28;20459;-51
2021/10/26 01:09:19;;;;;;;10.97;9.60;;;;;;;;;;4992165;28;20407;-51
2021/10/26 01:11:45;;;;;;;14.43;9.80;;;;;;;;;;4992114;28;20406;-52
2021/10/26 01:14:11;;;;;;;12.47;9.30;;;;;;;;;;4992321;28;20414;-51
2021/10/26 01:16:37;;;;;;;11.07;9.37;;;;;;;;;;4992100;28;20952;-50
2021/10/26 01:19:03;;;;;;;12.43;9.40;;;;;;;;;;4992239;28;20411;-51
2021/10/26 01:21:30;;;;;;;13.90;9.63;;;;;;;;;;4992173;28;20405;-51
2021/10/26 01:23:56;;;;;;;11.60;9.53;;;;;;;;;;4991801;28;20440;-51
2021/10/26 01:26:23;;;;;;;11.47;9.33;;;;;;;;;;4992082;28;20881;-51
2021/10/26 01:28:49;;;;;;;12.77;9.07;;;;;;;;;;4992162;28;20396;-51
2021/10/26 01:31:15;;;;;;;15.87;10.10;;;;;;;;;;4992236;28;20406;-52
2021/10/26 01:33:41;;;;;;;12.70;10.07;;;;;;;;;;4991868;28;20765;-51
2021/10/26 01:36:07;;;;;;;17.30;10.13;;;;;;;;;;4992042;28;20408;-52
2021/10/26 01:38:33;;;;;;;18.07;10.87;;;;;;;;;;4992024;28;20405;-51
2021/10/26 01:40:59;;;;;;;12.63;9.60;;;;;;;;;;4992041;28;20399;-51
2021/10/26 01:43:25;;;;;;;12.90;10.13;;;;;;;;;;4994219;28;20947;-52
2021/10/26 01:45:51;;;;;;;11.93;10.33;;;;;;;;;;4995687;28;20766;-52
2021/10/26 01:48:17;;;;;;;12.50;10.30;;;;;;;;;;4995563;28;20401;-51
2021/10/26 01:50:43;;;;;;;14.97;10.47;;;;;;;;;;4995534;28;20414;-52
2021/10/26 01:53:10;;;;;;;15.73;10.73;;;;;;;;;;4995254;28;20432;-51
2021/10/26 01:55:36;;;;;;;17.33;10.27;;;;;;;;;;4995452;28;20410;-51
2021/10/26 01:58:02;;;;;;;13.37;9.87;;;;;;;;;;4995240;28;20470;-51
2021/10/26 02:00:28;;;;;;;17.93;10.97;;;;;;;;;;4995459;28;20483;-52
2021/10/26 02:02:54;;;;;;;15.00;10.87;;;;;;;;;;4995061;28;20507;-51
2021/10/26 02:05:20;;;;;;;15.20;10.90;;;;;;;;;;4996029;28;20407;-51
2021/10/26 02:07:46;;;;;;;15.77;10.87;;;;;;;;;;4995143;28;20407;-52
2021/10/26 02:10:12;;;;;;;13.53;10.07;;;;;;;;;;4995243;28;20409;-51
2021/10/26 02:12:39;;;;;;;15.30;11.00;;;;;;;;;;4994817;28;20994;-51
2021/10/26 02:15:05;;;;;;;13.13;10.13;;;;;;;;;;4995131;28;20401;-51
2021/10/26 02:17:32;;;;;;;14.67;9.87;;;;;;;;;;4994947;28;20525;-52
2021/10/26 02:19:58;;;;;;;14.97;10.90;;;;;;;;;;4994999;28;20944;-52
2021/10/26 02:22:24;;;;;;;13.97;10.47;;;;;;;;;;4994601;28;20440;-52
2021/10/26 02:24:50;;;;;;;14.77;10.40;;;;;;;;;;4994948;28;20415;-51
2021/10/26 02:27:16;;;;;;;13.70;10.00;;;;;;;;;;4994794;28;20431;-51
2021/10/26 02:29:42;;;;;;;15.93;10.80;;;;;;;;;;4994821;28;20895;-51
2021/10/26 02:32:08;;;;;;;13.20;10.10;;;;;;;;;;4994503;28;20424;-51
2021/10/26 02:34:34;;;;;;;16.33;11.03;;;;;;;;;;4994660;28;20441;-51
2021/10/26 02:37:00;;;;;;;18.40;11.33;;;;;;;;;;4994660;28;20510;-51
2021/10/26 02:39:26;;;;;;;17.00;11.00;;;;;;;;;;4994687;28;20463;-50
2021/10/26 02:41:53;;;;;;;19.17;11.57;;;;;;;;;;4994614;28;20802;-50
2021/10/26 02:44:19;;;;;;;16.50;10.97;;;;;;;;;;4994598;28;20409;-50
2021/10/26 02:46:45;;;;;;;16.80;12.23;;;;;;;;;;4994503;28;20463;-51
2021/10/26 02:49:14;;;;;;;19.33;11.40;;;;;;;;;;4994437;28;20845;-50
2021/10/26 02:51:40;;;;;;;16.97;11.70;;;;;;;;;;4994379;28;20417;-50
2021/10/26 02:54:06;;;;;;;12.70;10.77;;;;;;;;;;4993613;28;20795;-51
2021/10/26 02:56:32;;;;;;;16.87;12.13;;;;;;;;;;4994290;28;20789;-51
2021/10/26 02:58:58;;;;;;;13.47;11.17;;;;;;;;;;4994398;28;20888;-51
2021/10/26 03:01:24;;;;;;;14.17;10.97;;;;;;;;;;4994264;28;20492;-51
2021/10/26 03:03:51;;;;;;;14.10;11.30;;;;;;;;;;4993836;28;20488;-51
2021/10/26 03:06:17;;;;;;;18.80;12.33;;;;;;;;;;4994204;28;20404;-51
2021/10/26 03:08:43;;;;;;;21.87;12.37;;;;;;;;;;4994196;28;20405;-51
2021/10/26 03:11:09;;;;;;;15.87;11.50;;;;;;;;;;4994043;28;20565;-52
2021/10/26 03:13:35;;;;;;;16.77;12.03;;;;;;;;;;4993813;28;20440;-51
2021/10/26 03:16:01;;;;;;;13.00;10.77;;;;;;;;;;4993957;28;20412;-52
2021/10/26 03:18:27;;;;;;;14.83;10.83;;;;;;;;;;4993818;28;20411;-52
2021/10/26 03:20:57;;;;;;;16.20;10.97;;;;;;;;;;4993913;28;20405;-51
2021/10/26 03:23:23;;;;;;;18.17;12.60;;;;;;;;;;4993557;28;20944;-50
2021/10/26 03:25:50;;;;;;;14.07;10.30;;;;;;;;;;4993797;28;20448;-51
2021/10/26 03:28:16;;;;;;;14.50;10.97;;;;;;;;;;4993769;28;20753;-51
2021/10/26 03:30:42;;;;;;;14.03;10.10;;;;;;;;;;4993709;28;20458;-51
2021/10/26 03:33:08;;;;;;;13.73;10.80;;;;;;;;;;4993297;28;20424;-52
2021/10/26 03:35:34;;;;;;;14.47;11.30;;;;;;;;;;4993656;28;20404;-51
2021/10/26 03:38:01;;;;;;;14.77;11.60;;;;;;;;;;4993497;28;20459;-52
2021/10/26 03:40:27;;;;;;;17.07;12.50;;;;;;;;;;4993491;28;20939;-51
2021/10/26 03:42:53;;;;;;;16.10;11.57;;;;;;;;;;4993575;28;20424;-51
2021/10/26 03:45:19;;;;;;;18.90;12.00;;;;;;;;;;4993473;28;20408;-51
2021/10/26 03:47:45;;;;;;;15.00;11.83;;;;;;;;;;4993325;28;20409;-52
2021/10/26 03:50:12;;;;;;;18.10;12.20;;;;;;;;;;4993375;28;20407;-52
2021/10/26 03:52:38;;;;;;;21.60;12.10;;;;;;;;;;4993030;28;20435;-51
2021/10/26 03:55:06;;;;;;;19.63;11.70;;;;;;;;;;4993272;28;20891;-50
2021/10/26 03:57:32;;;;;;;23.33;13.20;;;;;;;;;;4993115;28;20953;-52
2021/10/26 03:59:58;;;;;;;19.40;12.83;;;;;;;;;;4993078;28;20816;-50
2021/10/26 04:02:27;;;;;;;22.50;13.60;;;;;;;;;;4992977;28;20689;-52
2021/10/26 04:04:57;;;;;;;21.23;12.50;;;;;;;;;;4993105;28;20404;-50
2021/10/26 04:07:24;;;;;;;18.37;13.10;;;;;;;;;;4993150;28;20411;-51
2021/10/26 04:09:54;;;;;;;17.53;11.73;;;;;;;;;;4992984;28;20415;-51
2021/10/26 04:14:46;;;;;;;15.43;13.30;;;;;;;;;;4992889;28;20935;-52
2021/10/26 04:17:12;;;;;;;20.27;12.80;;;;;;;;;;4992925;28;20459;-52
2021/10/26 04:19:38;;;;;;;20.47;12.43;;;;;;;;;;4992857;28;20404;-51
2021/10/26 04:22:04;;;;;;;13.23;11.73;;;;;;;;;;4992418;28;20863;-52
2021/10/26 04:24:31;;;;;;;21.73;13.53;;;;;;;;;;4992830;28;20412;-51
2021/10/26 04:26:56;;;;;;;19.50;12.43;;;;;;;;;;4992680;28;20415;-50
2021/10/26 04:29:22;;;;;;;20.10;13.37;;;;;;;;;;4992679;28;20414;-52
2021/10/26 04:31:48;;;;;;;20.03;10.70;;;;;;;;;;4993179;28;20409;-53
2021/10/26 04:34:14;;;;;;;18.13;11.93;;;;;;;;;;4992774;28;20498;-53
2021/10/26 04:36:40;;;;;;;18.67;13.63;;;;;;;;;;4992481;28;20458;-52
2021/10/26 04:39:06;;;;;;;19.87;12.43;;;;;;;;;;4992593;28;20408;-53
2021/10/26 04:41:36;;;;;;;25.60;12.30;;;;;;;;;;4992613;28;20401;-53
2021/10/26 04:44:02;;;;;;;17.60;13.17;;;;;;;;;;4992323;28;20420;-53
2021/10/26 04:46:32;;;;;;;20.63;13.33;;;;;;;;;;4992617;28;20408;-52
2021/10/26 04:48:58;;;;;;;17.77;11.93;;;;;;;;;;4992468;28;20484;-51
2021/10/26 04:51:24;;;;;;;19.63;13.00;;;;;;;;;;4992497;28;20859;-53
2021/10/26 04:53:50;;;;;;;24.20;13.60;;;;;;;;;;4992195;28;20420;-53
2021/10/26 04:56:16;;;;;;;22.10;14.23;;;;;;;;;;4992263;28;20490;-53
2021/10/26 04:58:42;;;;;;;19.30;12.80;;;;;;;;;;4992309;28;20428;-53
2021/10/26 05:01:07;;;;;;;22.30;14.17;;;;;;;;;;4992372;28;20433;-53
2021/10/26 05:03:33;;;;;;;24.27;14.50;;;;;;;;;;4992109;28;20470;-52
2021/10/26 05:06:00;;;;;;;18.80;14.20;;;;;;;;;;4992423;28;20404;-53
2021/10/26 05:08:26;;;;;;;18.80;14.40;;;;;;;;;;4992205;28;20401;-51
2021/10/26 05:10:52;;;;;;;25.23;12.93;;;;;;;;;;4992264;28;20433;-53
2021/10/26 05:13:18;;;;;;;22.87;13.40;;;;;;;;;;4992244;28;20984;-53
2021/10/26 05:15:45;;;;;;;21.13;14.13;;;;;;;;;;4992476;28;20777;-53
2021/10/26 05:18:16;;;;;;;21.40;12.20;;;;;;;;;;4994479;28;20456;-53
2021/10/26 05:20:43;;;;;;;18.90;13.07;;;;;;;;;;4996214;28;20396;-51
2021/10/26 05:23:10;;;;;;;24.33;13.03;;;;;;;;;;4995699;28;20521;-53
2021/10/26 05:25:36;;;;;;;18.77;13.53;;;;;;;;;;4996005;28;20404;-52
2021/10/26 05:28:02;;;;;;;22.27;11.80;;;;;;;;;;4995924;28;20924;-50
2021/10/26 05:30:28;;;;;;;19.53;13.03;;;;;;;;;;4996042;28;20432;-51
2021/10/26 05:32:55;;;;;;;25.53;14.80;;;;;;;;;;4995712;28;20518;-51
2021/10/26 05:35:21;;;;;;;21.77;14.90;;;;;;;;;;4995955;28;20405;-50
2021/10/26 05:37:47;;;;;;;30.00;13.93;;;;;;;;;;4995679;28;20972;-50
2021/10/26 05:40:12;;;;;;;24.87;14.20;;;;;;;;;;4995934;28;20761;-50
2021/10/26 05:42:39;;;;;;;21.27;14.10;;;;;;;;;;4995555;28;20957;-53
2021/10/26 05:45:05;;;;;;;21.27;14.73;;;;;;;;;;4995698;28;20499;-53
2021/10/26 05:47:32;;;;;;;15.47;13.23;;;;;;;;;;4995620;28;20483;-50
2021/10/26 05:49:58;;;;;;;23.77;13.27;;;;;;;;;;4995582;28;20400;-52
2021/10/26 05:52:24;;;;;;;18.50;12.30;;;;;;;;;;4995219;28;20424;-49
2021/10/26 05:54:50;;;;;;;28.30;13.33;;;;;;;;;;4995418;28;20779;-52
2021/10/26 05:57:16;;;;;;;26.03;14.80;;;;;;;;;;4995387;28;20526;-52
2021/10/26 05:59:42;;;;;;;18.03;13.00;;;;;;;;;;4995464;28;20821;-51
2021/10/26 06:02:09;;;;;;;16.67;12.90;;;;;;;;;;4995144;28;20455;-52
2021/10/26 06:04:35;;;;;;;22.40;13.10;;;;;;;;;;4995391;28;20453;-52
2021/10/26 06:07:01;;;;;;;17.37;12.33;;;;;;;;;;4995104;28;20819;-53
2021/10/26 06:09:30;;;;;;;24.03;11.83;;;;;;;;;;4995624;28;20409;-52
2021/10/26 06:11:57;;;;;;;16.27;12.70;;;;;;;;;;4994912;28;20492;-53
2021/10/26 06:14:23;;;;;;;17.30;10.73;;;;;;;;;;4995195;28;20405;-51
2021/10/26 06:16:49;;;;;;;19.13;12.67;;;;;;;;;;4994949;28;20512;-51
2021/10/26 06:19:15;;;;;;;14.50;11.00;;;;;;;;;;4995129;28;20815;-50
2021/10/26 06:21:41;;;;;;;17.33;12.20;;;;;;;;;;4994802;28;20507;-52
2021/10/26 06:24:07;;;;;;;21.20;11.67;;;;;;;;;;4994821;28;20455;-53
2021/10/26 06:26:33;;;;;;;22.37;12.20;;;;;;;;;;4994948;28;20412;-53
2021/10/26 06:28:59;;;;;;;15.13;10.70;;;;;;;;;;4993734;28;20427;-53
2021/10/26 06:31:27;;;;;;;18.50;11.43;;;;;;;;;;4994959;28;20888;-52
2021/10/26 06:33:53;;;;;;;15.00;11.00;;;;;;;;;;4994581;28;20428;-53
2021/10/26 06:36:19;;;;;;;17.53;11.30;;;;;;;;;;4994518;28;20434;-52
2021/10/26 06:38:45;;;;;;;30.00;11.70;;;;;;;;;;4994826;28;20411;-52
2021/10/26 06:41:11;;;;;;;17.53;12.40;;;;;;;;;;4994681;28;20408;-50
2021/10/26 06:43:37;;;;;;;21.23;12.43;;;;;;;;;;4994380;28;20512;-53
2021/10/26 06:46:04;;;;;;;16.33;11.93;;;;;;;;;;4994633;28;20433;-50
2021/10/26 06:48:30;;;;;;;21.30;11.77;;;;;;;;;;4994499;28;20413;-52
2021/10/26 06:50:56;;;;;;;18.23;11.30;;;;;;;;;;4994363;28;20671;-52
2021/10/26 06:53:22;;;;;;;20.90;11.60;;;;;;;;;;4994208;28;20516;-52
2021/10/26 06:55:49;;;;;;;17.47;11.20;;;;;;;;;;4994440;28;20404;-52
2021/10/26 06:58:16;;;;;;;17.13;11.43;;;;;;;;;;4994261;28;20455;-53
2021/10/26 07:00:43;;;;;;;14.07;9.97;;;;;;;;;;4994430;28;20379;-51
2021/10/26 07:03:09;;;;;;;21.40;12.27;;;;;;;;;;4993966;28;20464;-53
2021/10/26 07:05:36;;;;;;;14.33;10.50;;;;;;;;;;4994108;28;20491;-53
2021/10/26 07:08:02;;;;;;;15.60;10.83;;;;;;;;;;4993790;28;20469;-52
2021/10/26 07:10:28;;;;;;;17.50;10.70;;;;;;;;;;4995787;28;20413;-53
2021/10/26 07:12:55;;;;;;;12.60;9.60;;;;;;;;;;4993726;28;20427;-52
2021/10/26 07:15:21;;;;;;;14.70;9.90;;;;;;;;;;4994154;28;20796;-49
2021/10/26 07:17:47;;;;;;;14.23;10.17;;;;;;;;;;4976583;28;20452;-50
2021/10/26 07:20:15;;;;;;;16.43;10.17;;;;;;;;;;4993777;28;20412;-52
2021/10/26 07:22:41;;;;;;;12.90;9.83;;;;;;;;;;4993556;28;20437;-52
2021/10/26 07:25:09;;;;;;;17.00;9.93;;;;;;;;;;4993985;28;20420;-53
2021/10/26 07:27:35;;;;;;;14.30;9.50;;;;;;;;;;4993800;28;20951;-52
2021/10/26 07:30:02;;;;;;;18.90;9.37;;;;;;;;;;4993815;28;20385;-51
2021/10/26 07:32:28;;;;;;;16.50;10.07;;;;;;;;;;4993460;28;20424;-53
2021/10/26 07:34:54;;;;;;;15.57;9.30;;;;;;;;;;4993692;28;20509;-50
2021/10/26 07:37:24;;;;;;;12.50;8.00;;;;;;;;;;4993430;28;20556;-50
2021/10/26 07:39:52;;;;;;;12.00;8.30;;;;;;;;;;4993106;28;20401;-53
2021/10/26 07:42:18;;;;;;;10.83;8.07;;;;;;;;;;4991757;28;20467;-52
2021/10/26 07:44:51;;;;;;;12.83;9.17;;;;;;;;;;4993326;28;20467;-53
2021/10/26 07:47:19;;;;;;;10.10;7.80;;;;;;;;;;4993315;28;20400;-52
2021/10/26 07:49:46;;;;;;;11.07;7.93;;;;;;;;;;4993406;28;20495;-52
2021/10/26 07:52:12;;;;;;;11.47;8.07;;;;;;;;;;4992907;28;20419;-52
2021/10/26 07:54:39;;;;;;;12.50;8.80;;;;;;;;;;4993379;28;20413;-51
2021/10/26 07:57:05;;;;;;;14.67;7.80;;;;;;;;;;4993188;28;20536;-53
2021/10/26 07:59:31;;;;;;;12.27;7.70;;;;;;;;;;4993753;28;20431;-53
2021/10/26 08:01:57;;;;;;;13.57;8.30;;;;;;;;;;4993026;28;20409;-53
2021/10/26 08:04:23;;;;;;;10.23;6.97;;;;;;;;;;4993159;28;20432;-53
2021/10/26 08:06:49;;;;;;;16.10;7.87;;;;;;;;;;4993116;28;20441;-53
2021/10/26 08:09:16;;;;;;;11.03;7.80;;;;;;;;;;4993133;28;20407;-53
2021/10/26 08:11:42;;;;;;;13.63;8.33;;;;;;;;;;4993005;28;20445;-53
2021/10/26 08:14:08;;;;;;;12.97;7.80;;;;;;;;;;4992763;28;20427;-52
2021/10/26 08:16:34;;;;;;;12.03;7.47;;;;;;;;;;4992885;28;20513;-52
2021/10/26 08:19:01;;;;;;;10.43;7.23;;;;;;;;;;4992852;28;20401;-52
2021/10/26 08:21:27;;;;;;;11.43;7.17;;;;;;;;;;4992905;28;20407;-52
2021/10/26 08:23:53;;;;;;;9.20;7.23;;;;;;;;;;4992503;28;20471;-52
2021/10/26 08:26:35;;;;;;;12.97;8.50;;;;;;;;;;4992794;28;20402;-50
2021/10/26 08:29:31;;;;;;;13.03;6.57;;;;;;;;;;4992898;28;20374;-50
2021/10/26 08:32:11;;;;;;;11.43;7.53;;;;;;;;;;4992257;28;20421;-50
2021/10/26 08:37:08;;;;;;;13.67;7.30;;;;;;;;;;4992505;28;20502;-53
2021/10/26 08:39:36;;;;;;;9.67;6.43;;;;;;;;;;4992681;28;20380;-53
2021/10/26 08:42:03;;;;;;;10.90;7.17;;;;;;;;;;4992458;28;20411;-52
2021/10/26 08:44:29;;;;;;;13.43;7.53;;;;;;;;;;4992691;28;20398;-51
2021/10/26 08:46:55;;;;;;;11.97;7.07;;;;;;;;;;4992594;28;20413;-50
2021/10/26 08:49:22;;;;;;;11.33;6.90;;;;;;;;;;4992564;28;20405;-53
2021/10/26 08:51:52;;;;;;;8.93;7.20;;;;;;;;;;4991686;28;20420;-53
2021/10/26 08:54:18;;;;;;;14.83;8.07;;;;;;;;;;4992738;28;20409;-53
2021/10/26 08:56:45;;;;;;;14.40;7.97;;;;;;;;;;4992544;28;20537;-52
2021/10/26 08:59:12;;;;;;;14.23;6.77;;;;;;;;;;4992615;28;20889;-53
2021/10/26 09:04:33;;;;;;;8.70;6.60;;;;;;;;;;5391992;23;20483;-49
2021/10/26 09:07:05;;;;;;;10.30;6.23;;;;;;;;;;4989754;28;20438;-50
2021/10/26 09:09:32;;;;;;;14.80;6.60;;;;;;;;;;5001534;28;20561;-49
2021/10/26 09:17:32;;;;;;;8.27;5.30;;;;;;;;;;5012530;28;20445;-51
2021/10/26 09:20:00;;;;;;;8.93;6.03;;;;;;;;;;5011736;28;20376;-50
2021/10/26 09:22:27;;;;;;;16.77;6.57;;;;;;;;;;4993954;28;20482;-49
2021/10/26 09:25:12;;;;;;;11.30;6.50;;;;;;;;;;5009427;28;20937;-49
2021/10/26 09:27:38;;;;;;;10.90;5.93;;;;;;;;;;5011935;28;20419;-52
2021/10/26 09:30:09;;;;;;;7.30;6.00;;;;;;;;;;5012035;28;20468;-49
2021/10/26 09:32:37;;;;;;;8.90;5.90;;;;;;;;;;5011922;28;20457;-49
2021/10/26 09:35:04;;;;;;;8.73;5.20;;;;;;;;;;5012087;28;20410;-52
2021/10/26 09:37:35;;;;;;;17.43;6.00;;;;;;;;;;5012411;28;20458;-49
2021/10/26 09:40:01;;;;;;;16.33;5.83;;;;;;;;;;5011732;28;20412;-49
2021/10/26 09:42:28;;;;;;;9.60;6.03;;;;;;;;;;5011966;28;20853;-49
2021/10/26 09:45:01;;;;;;;6.97;4.93;;;;;;;;;;5011531;28;20500;-49
2021/10/26 09:47:28;;;;;;;6.27;4.60;;;;;;;;;;5010145;28;20389;-49
2021/10/26 09:49:57;;;;;;;10.70;6.30;;;;;;;;;;5011601;28;20418;-49
2021/10/26 09:52:24;;;;;;;8.90;5.30;;;;;;;;;;5011893;28;20456;-51
2021/10/26 09:55:00;;;;;;;5.93;5.20;;;;;;;;;;5011417;28;20469;-51
2021/10/26 09:57:33;;;;;;;7.00;5.73;;;;;;;;;;5012747;28;20450;-51
2021/10/26 10:00:00;;;;;;;8.23;5.20;;;;;;;;;;5011488;28;20396;-49
2021/10/26 10:02:26;;;;;;;8.03;5.17;;;;;;;;;;5012152;28;20432;-52
2021/10/26 10:04:53;;;;;;;8.70;5.07;;;;;;;;;;5014908;28;20844;-49
2021/10/26 10:07:35;;;;;;;9.17;5.00;;;;;;;;;;5014808;28;20936;-50
2021/10/26 10:10:04;;;;;;;6.90;4.10;;;;;;;;;;5015077;28;20737;-49
2021/10/26 10:12:31;;;;;;;10.57;4.47;;;;;;;;;;5014403;28;21007;-51
2021/10/26 10:14:57;;;;;;;10.70;4.20;;;;;;;;;;5015335;28;20401;-53
2021/10/26 10:17:25;;;;;;;7.53;3.73;;;;;;;;;;5011573;28;20864;-51
2021/10/26 10:19:52;;;;;;;6.73;3.70;;;;;;;;;;5000197;28;20927;-52
2021/10/26 10:22:21;;;;;;;6.00;4.00;;;;;;;;;;5005289;28;20417;-52
2021/10/26 10:24:49;;;;;;;7.23;4.07;;;;;;;;;;4992944;28;20434;-50
2021/10/26 10:27:18;;;;;;;8.30;3.10;;;;;;;;;;5004095;28;20475;-50
2021/10/26 10:29:45;;;;;;;6.20;3.63;;;;;;;;;;5005831;28;20500;-49
2021/10/26 10:32:11;;;;;;;3.20;2.90;;;;;;;;;;5010578;28;20412;-52
2021/10/26 10:34:37;;;;;;;4.20;3.00;;;;;;;;;;5013876;28;20419;-50
2021/10/26 10:37:04;;;;;;;3.80;2.87;;;;;;;;;;5013979;28;20458;-49
2021/10/26 10:39:33;;;;;;;5.80;2.90;;;;;;;;;;5013045;28;20414;-49
2021/10/26 10:42:29;;;;;;;4.20;3.30;;;;;;;;;;5014176;28;20465;-49
2021/10/26 10:44:57;;;;;;;5.70;3.13;;;;;;;;;;5013919;28;20444;-49
2021/10/26 10:47:38;;;;;;;9.43;3.63;;;;;;;;;;5013768;28;20458;-49
2021/10/26 10:50:23;;;;;;;10.40;3.43;;;;;;;;;;5013692;28;20379;-51
2021/10/26 10:53:19;;;;;;;3.83;3.17;;;;;;;;;;5013500;28;20453;-49
2021/10/26 10:55:47;;;;;;;5.60;3.13;;;;;;;;;;4997970;28;20876;-49
2021/10/26 10:58:38;;;;;;;7.10;3.20;;;;;;;;;;5013542;28;20457;-49
2021/10/26 11:01:32;;;;;;;5.17;4.07;;;;;;;;;;5012008;28;20409;-49
2021/10/26 11:03:59;;;;;;;5.30;3.33;;;;;;;;;;5005146;28;20931;-50
2021/10/26 11:06:43;;;;;;;6.90;3.33;;;;;;;;;;5012113;28;20435;-49
2021/10/26 11:09:28;;;;;;;6.50;3.03;;;;;;;;;;5014137;28;20437;-52
2021/10/26 11:12:15;;;;;;;7.03;3.30;;;;;;;;;;5013577;28;20405;-51
2021/10/26 11:14:42;;;;;;;6.57;3.00;;;;;;;;;;5012087;28;20422;-52
2021/10/26 11:17:27;;;;;;;3.57;2.67;;;;;;;;;;5014552;28;20437;-52
2021/10/26 11:19:56;;;;;;;5.40;3.33;;;;;;;;;;5014098;28;20394;-52
2021/10/26 11:22:40;;;;;;;5.03;3.13;;;;;;;;;;5014187;28;20402;-50
2021/10/26 11:25:21;;;;;;;9.57;2.57;;;;;;;;;;5013500;28;20478;-49
2021/10/26 11:27:48;;;;;;;4.87;2.90;;;;;;;;;;5013207;28;20375;-49
2021/10/26 11:30:33;;;;;;;2.90;2.60;;;;;;;;;;5012250;28;20413;-52
2021/10/26 11:33:17;;;;;;;3.97;3.00;;;;;;;;;;5012935;28;20427;-51
2021/10/26 11:35:43;;;;;;;3.20;2.80;;;;;;;;;;5013775;28;20399;-50
2021/10/26 11:38:11;;;;;;;9.40;3.57;;;;;;;;;;5013431;28;20811;-51
2021/10/26 11:40:37;;;;;;;6.33;3.00;;;;;;;;;;5013750;28;20408;-52
2021/10/26 11:43:03;;;;;;;4.07;2.93;;;;;;;;;;5014001;28;20395;-50
2021/10/26 11:45:31;;;;;;;4.07;2.60;;;;;;;;;;5013740;28;20379;-50
2021/10/26 11:47:57;;;;;;;10.47;3.77;;;;;;;;;;5013684;28;20411;-51
2021/10/26 11:50:23;;;;;;;6.70;3.57;;;;;;;;;;5012712;28;20403;-52
2021/10/26 11:52:49;;;;;;;6.33;3.50;;;;;;;;;;5012955;28;20421;-51
2021/10/26 11:55:35;;;;;;;5.23;2.93;;;;;;;;;;5013951;28;20407;-52
2021/10/26 11:58:01;;;;;;;5.63;2.93;;;;;;;;;;5013751;28;20545;-53
2021/10/26 12:00:27;;;;;;;4.53;2.77;;;;;;;;;;5014582;28;20458;-52
2021/10/26 12:02:53;;;;;;;7.03;2.70;;;;;;;;;;5011847;28;20404;-50
2021/10/26 12:05:20;;;;;;;5.90;2.60;;;;;;;;;;5010778;28;20770;-51
2021/10/26 12:07:49;;;;;;;3.23;2.63;;;;;;;;;;5011045;28;20416;-50
2021/10/26 12:10:16;;;;;;;5.07;2.60;;;;;;;;;;5011390;28;20485;-50
2021/10/26 12:12:42;;;;;;;5.73;2.53;;;;;;;;;;5011964;28;20422;-50
2021/10/26 12:15:09;;;;;;;5.57;2.77;;;;;;;;;;5012514;28;20419;-50
2021/10/26 12:17:36;;;;;;;4.63;2.83;;;;;;;;;;5012360;28;20467;-50
2021/10/26 12:20:12;;;;;;;7.93;2.50;;;;;;;;;;5012500;28;20432;-50
2021/10/26 12:22:41;;;;;;;3.30;2.57;;;;;;;;;;5012540;28;20401;-53
2021/10/26 12:25:23;;;;;;;7.00;2.70;;;;;;;;;;5012440;28;20418;-51
2021/10/26 12:27:59;;;;;;;3.47;2.43;;;;;;;;;;5011397;28;20438;-53
2021/10/26 12:30:28;;;;;;;4.63;2.20;;;;;;;;;;5012329;28;20496;-50
2021/10/26 12:32:54;;;;;;;9.13;2.40;;;;;;;;;;5012206;28;20399;-50
2021/10/26 12:35:22;;;;;;;5.30;2.30;;;;;;;;;;5012326;28;20779;-51
2021/10/26 12:37:48;;;;;;;5.27;2.27;;;;;;;;;;5011975;28;20909;-50
2021/10/26 12:40:19;;;;;;;3.80;2.67;;;;;;;;;;5012257;28;20408;-52
2021/10/26 12:43:06;;;;;;;4.53;2.40;;;;;;;;;;5011796;28;20408;-50
2021/10/26 12:45:36;;;;;;;4.20;2.13;;;;;;;;;;5012246;28;20863;-50
2021/10/26 12:48:04;;;;;;;3.40;2.30;;;;;;;;;;5012160;28;20404;-50
2021/10/26 12:50:36;;;;;;;9.10;2.60;;;;;;;;;;5012264;28;20907;-52
2021/10/26 12:53:32;;;;;;;2.97;2.20;;;;;;;;;;5012395;28;20911;-50
2021/10/26 12:55:59;;;;;;;6.00;2.43;;;;;;;;;;5012049;28;20415;-50
2021/10/26 12:58:31;;;;;;;3.10;2.43;;;;;;;;;;5011765;28;20459;-51
2021/10/26 13:00:57;;;;;;;3.97;2.20;;;;;;;;;;5011842;28;20422;-51
2021/10/26 13:03:23;;;;;;;4.47;2.60;;;;;;;;;;5011354;28;20849;-52
2021/10/26 13:05:53;;;;;;;5.20;2.53;;;;;;;;;;5011798;28;21020;-51
2021/10/26 13:08:22;;;;;;;5.87;2.40;;;;;;;;;;5010930;28;20503;-50
2021/10/26 13:10:49;;;;;;;4.50;2.30;;;;;;;;;;5011934;28;20405;-51
2021/10/26 13:13:16;;;;;;;3.17;2.43;;;;;;;;;;5011551;28;20921;-50
2021/10/26 13:15:44;;;;;;;5.00;2.13;;;;;;;;;;5011919;28;20433;-50
2021/10/26 13:18:14;;;;;;;5.20;2.80;;;;;;;;;;5011718;28;20461;-51
2021/10/26 13:20:42;;;;;;;7.30;2.20;;;;;;;;;;5011925;28;20406;-50
2021/10/26 13:23:24;;;;;;;10.80;2.70;;;;;;;;;;5011539;28;20444;-50
2021/10/26 13:25:56;;;;;;;2.53;2.30;;;;;;;;;;5011908;28;20456;-50
2021/10/26 13:28:24;;;;;;;3.70;2.33;;;;;;;;;;5011668;28;20862;-50
2021/10/26 13:30:52;;;;;;;3.07;2.70;;;;;;;;;;5011788;28;20410;-51
2021/10/26 13:33:18;;;;;;;3.33;2.10;;;;;;;;;;5011417;28;20952;-51
2021/10/26 13:35:45;;;;;;;3.80;2.20;;;;;;;;;;5011707;28;20406;-51
2021/10/26 13:38:11;;;;;;;2.20;1.67;;;;;;;;;;5012100;28;20942;-51
2021/10/26 13:40:37;;;;;;;3.80;1.83;;;;;;;;;;5015374;28;20402;-50
2021/10/26 13:43:06;;;;;;;6.33;2.30;;;;;;;;;;5014811;28;20429;-51
2021/10/26 13:45:31;;;;;;;2.83;1.90;;;;;;;;;;5014611;28;20387;-50
2021/10/26 13:47:57;;;;;;;5.10;2.60;;;;;;;;;;5015109;28;20418;-50
2021/10/26 13:50:23;;;;;;;6.83;3.63;;;;;;;;;;5015283;28;20430;-50
2021/10/26 13:52:49;;;;;;;3.53;2.03;;;;;;;;;;4996210;28;20437;-51
2021/10/26 13:55:15;;;;;;;6.37;2.27;;;;;;;;;;4995465;28;20959;-51
2021/10/26 13:57:41;;;;;;;8.00;2.23;;;;;;;;;;4995162;28;20471;-51
2021/10/26 14:00:14;;;;;;;2.93;2.03;;;;;;;;;;4995520;28;20443;-52
2021/10/26 14:02:42;;;;;;;7.63;2.47;;;;;;;;;;4995065;28;20406;-54
2021/10/26 14:05:09;;;;;;;4.70;2.27;;;;;;;;;;4995431;28;20404;-50
2021/10/26 14:07:36;;;;;;;4.40;1.93;;;;;;;;;;4995214;28;20454;-50
2021/10/26 14:10:06;;;;;;;3.77;1.90;;;;;;;;;;4994982;28;20424;-50
2021/10/26 14:12:32;;;;;;;4.03;2.00;;;;;;;;;;4995253;28;20412;-50
2021/10/26 14:14:58;;;;;;;10.10;2.70;;;;;;;;;;4988735;28;21061;-50
2021/10/26 14:17:24;;;;;;;4.80;2.47;;;;;;;;;;4995029;28;20462;-51
2021/10/26 14:19:50;;;;;;;3.33;2.00;;;;;;;;;;4994998;28;20649;-50
2021/10/26 14:22:19;;;;;;;4.03;2.50;;;;;;;;;;4994997;28;20404;-50
2021/10/26 14:24:45;;;;;;;4.87;2.50;;;;;;;;;;4994620;28;20794;-50
2021/10/26 14:27:11;;;;;;;5.10;2.50;;;;;;;;;;4994919;28;20908;-52
2021/10/26 14:29:37;;;;;;;2.60;2.27;;;;;;;;;;4994793;28;20869;-52
2021/10/26 14:32:05;;;;;;;4.00;2.03;;;;;;;;;;4994952;28;20411;-50
2021/10/26 14:34:31;;;;;;;7.80;2.07;;;;;;;;;;4994606;28;20451;-50
2021/10/26 14:37:06;;;;;;;6.90;2.27;;;;;;;;;;4994525;28;20435;-50
2021/10/26 14:53:06;;;;;;;3.10;2.20;;;;;;;;;;4993827;28;20748;-50
2021/10/26 14:55:58;;;;;;;6.80;2.47;;;;;;;;;;4993644;28;20416;-50
2021/10/26 14:58:18;;;;;;;6.97;1.97;;;;;;;;;;4993855;28;20957;-50
2021/10/26 15:00:44;;;;;;;2.17;1.97;;;;;;;;;;4994507;28;20367;-50